Time;durP1;ratioP1;P1;durP2;ratioP2;P2;SDS_P1;SDS_P2;PMS_P1;PMS_P2;Temp;Humidity;BMP_temperature;BMP_pressure;BME280_temperature;BME280_humidity;BME280_pressure;Samples;Min_cycle;Max_cycle;Signal;HPM_P1;HPM_P2
2022/10/10 00:01:14;;;;;;;15.43;14.53;;;;;;;;;;1810475;77;617842;-75
2022/10/10 00:03:44;;;;;;;15.93;14.73;;;;;;;;;;1787965;78;615041;-75
2022/10/10 00:06:13;;;;;;;15.90;14.60;;;;;;;;;;1810360;77;616933;-74
2022/10/10 00:08:43;;;;;;;15.77;14.67;;;;;;;;;;1818291;78;615977;-75
2022/10/10 00:11:12;;;;;;;15.07;14.27;;;;;;;;;;1810131;78;617852;-75
2022/10/10 00:13:42;;;;;;;15.67;14.47;;;;;;;;;;1787491;78;615171;-74
2022/10/10 00:16:11;;;;;;;15.50;14.33;;;;;;;;;;1810203;78;616849;-75
2022/10/10 00:18:40;;;;;;;16.07;14.83;;;;;;;;;;1712309;80;615039;-74
2022/10/10 00:21:09;;;;;;;15.30;14.20;;;;;;;;;;1678215;80;616975;-75
2022/10/10 00:23:37;;;;;;;15.97;14.87;;;;;;;;;;1737023;80;617932;-75
2022/10/10 00:26:06;;;;;;;15.57;14.67;;;;;;;;;;1728516;79;617761;-74
2022/10/10 00:28:37;;;;;;;15.97;15.03;;;;;;;;;;1741495;80;617793;-75
2022/10/10 00:31:07;;;;;;;15.17;14.23;;;;;;;;;;1810377;77;616871;-75
2022/10/10 00:33:37;;;;;;;15.30;14.40;;;;;;;;;;1818090;77;617792;-74
2022/10/10 00:36:07;;;;;;;15.33;14.43;;;;;;;;;;1810275;77;616946;-74
2022/10/10 00:38:36;;;;;;;15.00;13.93;;;;;;;;;;1817846;78;617842;-74
2022/10/10 00:41:05;;;;;;;15.50;14.37;;;;;;;;;;1810307;76;617861;-75
2022/10/10 00:43:34;;;;;;;15.50;14.37;;;;;;;;;;1787315;78;616866;-75
2022/10/10 00:46:03;;;;;;;15.97;14.67;;;;;;;;;;1756050;77;617745;-75
2022/10/10 00:48:34;;;;;;;14.97;14.10;;;;;;;;;;1818238;78;616963;-74
2022/10/10 00:51:05;;;;;;;15.17;14.27;;;;;;;;;;1810012;77;617032;-75
2022/10/10 00:53:34;;;;;;;15.27;14.13;;;;;;;;;;1818172;78;617075;-75
2022/10/10 00:56:05;;;;;;;15.17;14.17;;;;;;;;;;1780107;78;616896;-75
2022/10/10 00:58:37;;;;;;;15.73;14.60;;;;;;;;;;1721961;81;617019;-75
2022/10/10 01:01:06;;;;;;;15.60;14.70;;;;;;;;;;1810177;78;617058;-75
2022/10/10 01:03:35;;;;;;;15.27;14.23;;;;;;;;;;1787708;78;616883;-75
2022/10/10 01:06:04;;;;;;;15.60;14.47;;;;;;;;;;1779581;78;616914;-75
2022/10/10 01:08:33;;;;;;;15.70;14.50;;;;;;;;;;1818049;78;616926;-75
2022/10/10 01:11:06;;;;;;;16.03;14.80;;;;;;;;;;1779640;77;617052;-74
2022/10/10 01:13:36;;;;;;;15.33;14.37;;;;;;;;;;1817831;78;616940;-75
2022/10/10 01:16:07;;;;;;;15.07;14.07;;;;;;;;;;1755805;77;617846;-75
2022/10/10 01:18:38;;;;;;;15.80;14.90;;;;;;;;;;1818237;77;617652;-75
2022/10/10 01:21:12;;;;;;;15.57;14.50;;;;;;;;;;1769158;76;616988;-75
2022/10/10 01:23:58;;;;;;;15.33;14.40;;;;;;;;;;1758666;80;615051;-75
2022/10/10 01:26:43;;;;;;;15.27;14.13;;;;;;;;;;1765347;80;617259;-75
2022/10/10 01:29:13;;;;;;;16.00;14.80;;;;;;;;;;1727815;80;617004;-75
2022/10/10 01:31:43;;;;;;;15.20;14.20;;;;;;;;;;1717404;80;616065;-75
2022/10/10 01:34:13;;;;;;;15.90;14.70;;;;;;;;;;1747130;80;617726;-75
2022/10/10 01:36:46;;;;;;;15.77;14.63;;;;;;;;;;1754742;80;615294;-75
2022/10/10 01:39:18;;;;;;;15.40;14.33;;;;;;;;;;1747188;80;617032;-75
2022/10/10 01:41:48;;;;;;;14.80;13.90;;;;;;;;;;1722465;81;615173;-75
2022/10/10 01:44:16;;;;;;;15.40;14.30;;;;;;;;;;1740403;78;617038;-75
2022/10/10 01:46:46;;;;;;;15.47;14.40;;;;;;;;;;1758579;80;615185;-75
2022/10/10 01:49:14;;;;;;;15.80;14.73;;;;;;;;;;1726299;80;617812;-75
2022/10/10 01:51:46;;;;;;;15.10;13.97;;;;;;;;;;1713814;80;615931;-75
2022/10/10 01:54:18;;;;;;;15.30;14.13;;;;;;;;;;1734185;80;617758;-75
2022/10/10 01:56:48;;;;;;;15.47;14.37;;;;;;;;;;1748107;78;615945;-75
2022/10/10 01:59:23;;;;;;;15.63;14.23;;;;;;;;;;1757632;79;617791;-75
2022/10/10 02:01:53;;;;;;;15.00;14.03;;;;;;;;;;1741362;80;615851;-75
2022/10/10 02:04:24;;;;;;;14.90;13.90;;;;;;;;;;1818422;78;618024;-75
2022/10/10 02:06:55;;;;;;;14.97;13.67;;;;;;;;;;1817519;78;615973;-75
2022/10/10 02:09:26;;;;;;;15.03;13.63;;;;;;;;;;1785270;78;617831;-75
2022/10/10 02:11:57;;;;;;;15.83;14.73;;;;;;;;;;1712341;79;617054;-76
2022/10/10 02:14:28;;;;;;;15.17;14.13;;;;;;;;;;1774095;78;616970;-75
2022/10/10 02:16:58;;;;;;;14.37;13.40;;;;;;;;;;1766146;79;616958;-75
2022/10/10 02:19:27;;;;;;;14.63;13.57;;;;;;;;;;1744501;80;617040;-75
2022/10/10 02:21:59;;;;;;;14.53;13.43;;;;;;;;;;1702499;81;617062;-75
2022/10/10 02:24:27;;;;;;;15.27;14.13;;;;;;;;;;1711990;80;617958;-75
2022/10/10 02:26:58;;;;;;;14.97;14.03;;;;;;;;;;1704863;80;617893;-75
2022/10/10 02:29:28;;;;;;;14.67;13.57;;;;;;;;;;1741593;80;617009;-75
2022/10/10 02:31:58;;;;;;;15.60;14.30;;;;;;;;;;1779792;78;617662;-75
2022/10/10 02:34:29;;;;;;;14.90;13.67;;;;;;;;;;1817449;77;616942;-75
2022/10/10 02:36:59;;;;;;;14.97;13.87;;;;;;;;;;1809967;77;616899;-75
2022/10/10 02:39:29;;;;;;;15.00;14.17;;;;;;;;;;1818203;78;616914;-75
2022/10/10 02:41:58;;;;;;;15.00;13.80;;;;;;;;;;1810060;77;617799;-75
2022/10/10 02:44:28;;;;;;;14.13;13.33;;;;;;;;;;1818017;76;617019;-75
2022/10/10 02:46:56;;;;;;;14.60;13.73;;;;;;;;;;1690600;80;616939;-75
2022/10/10 02:49:26;;;;;;;15.00;13.90;;;;;;;;;;1788296;78;618031;-75
2022/10/10 02:51:54;;;;;;;14.90;13.87;;;;;;;;;;1810126;77;616916;-75
2022/10/10 02:54:24;;;;;;;15.43;14.37;;;;;;;;;;1818049;78;617906;-75
2022/10/10 02:56:53;;;;;;;16.43;14.73;;;;;;;;;;1721739;81;615094;-75
2022/10/10 02:59:22;;;;;;;16.10;14.50;;;;;;;;;;1818062;77;617802;-75
2022/10/10 03:01:50;;;;;;;15.53;14.17;;;;;;;;;;1787624;78;615981;-75
2022/10/10 03:04:19;;;;;;;14.63;13.70;;;;;;;;;;1666289;81;617115;-75
2022/10/10 03:06:48;;;;;;;14.27;13.17;;;;;;;;;;1765313;80;615791;-75
2022/10/10 03:09:18;;;;;;;14.40;13.30;;;;;;;;;;1704453;80;617922;-75
2022/10/10 03:11:46;;;;;;;13.57;12.57;;;;;;;;;;1736018;80;615097;-75
2022/10/10 03:14:15;;;;;;;14.73;13.30;;;;;;;;;;1684306;78;617137;-75
2022/10/10 03:16:46;;;;;;;14.47;13.20;;;;;;;;;;1765138;79;615076;-74
2022/10/10 03:19:16;;;;;;;13.73;12.83;;;;;;;;;;1757631;79;617974;-75
2022/10/10 03:21:45;;;;;;;14.70;13.70;;;;;;;;;;1736245;80;615220;-75
2022/10/10 03:24:14;;;;;;;14.40;13.33;;;;;;;;;;1757608;80;617819;-75
2022/10/10 03:26:42;;;;;;;14.07;13.00;;;;;;;;;;1737325;80;616123;-74
2022/10/10 03:29:12;;;;;;;13.60;12.57;;;;;;;;;;1714825;80;617725;-75
2022/10/10 03:31:41;;;;;;;14.00;12.77;;;;;;;;;;1785358;78;615937;-75
2022/10/10 03:34:10;;;;;;;13.97;12.83;;;;;;;;;;1806285;77;617796;-75
2022/10/10 03:36:39;;;;;;;14.13;13.03;;;;;;;;;;1818120;78;617042;-74
2022/10/10 03:39:08;;;;;;;14.47;13.27;;;;;;;;;;1780110;78;616902;-75
2022/10/10 03:41:36;;;;;;;14.77;13.73;;;;;;;;;;1749093;78;617821;-75
2022/10/10 03:44:05;;;;;;;14.17;13.33;;;;;;;;;;1757473;78;617867;-75
2022/10/10 03:46:34;;;;;;;15.27;14.00;;;;;;;;;;1736359;80;617947;-75
2022/10/10 03:49:05;;;;;;;14.80;13.73;;;;;;;;;;1714954;80;617884;-75
2022/10/10 03:51:34;;;;;;;14.90;13.90;;;;;;;;;;1817785;77;617777;-75
2022/10/10 03:54:03;;;;;;;15.57;14.13;;;;;;;;;;1779984;77;617928;-75
2022/10/10 03:56:32;;;;;;;16.40;14.90;;;;;;;;;;1787423;78;617910;-75
2022/10/10 03:59:02;;;;;;;16.00;14.77;;;;;;;;;;1780910;78;617811;-75
2022/10/10 04:01:32;;;;;;;16.00;14.90;;;;;;;;;;1809935;77;617321;-75
2022/10/10 04:04:00;;;;;;;15.53;14.40;;;;;;;;;;1810088;78;617994;-75
2022/10/10 04:06:30;;;;;;;15.17;14.03;;;;;;;;;;1721628;81;617944;-75
2022/10/10 04:08:59;;;;;;;16.07;14.80;;;;;;;;;;1810356;77;617812;-75
2022/10/10 04:11:29;;;;;;;15.17;14.10;;;;;;;;;;1788174;78;617916;-75
2022/10/10 04:13:58;;;;;;;15.70;14.40;;;;;;;;;;1780438;76;617856;-75
2022/10/10 04:16:27;;;;;;;15.33;14.03;;;;;;;;;;1818160;77;617974;-74
2022/10/10 04:18:55;;;;;;;15.03;13.93;;;;;;;;;;1810074;77;617830;-75
2022/10/10 04:21:25;;;;;;;15.17;14.07;;;;;;;;;;1788495;78;617923;-75
2022/10/10 04:23:54;;;;;;;15.90;14.60;;;;;;;;;;1788878;78;615931;-74
2022/10/10 04:26:22;;;;;;;16.17;14.87;;;;;;;;;;1818200;78;617859;-75
2022/10/10 04:28:51;;;;;;;16.20;14.90;;;;;;;;;;1763685;78;615982;-75
2022/10/10 04:31:19;;;;;;;16.73;15.20;;;;;;;;;;1809660;77;618090;-74
2022/10/10 04:33:48;;;;;;;16.63;15.43;;;;;;;;;;1787537;78;615977;-75
2022/10/10 04:36:19;;;;;;;16.50;15.10;;;;;;;;;;1690755;81;617815;-75
2022/10/10 04:38:47;;;;;;;16.03;14.60;;;;;;;;;;1817930;78;615977;-75
2022/10/10 04:41:17;;;;;;;16.23;14.83;;;;;;;;;;1810291;77;617838;-74
2022/10/10 04:43:45;;;;;;;17.20;15.43;;;;;;;;;;1818191;77;615983;-75
2022/10/10 04:46:15;;;;;;;16.43;15.00;;;;;;;;;;1810268;78;618009;-75
2022/10/10 04:48:45;;;;;;;17.70;15.87;;;;;;;;;;1818329;78;615885;-75
2022/10/10 04:51:14;;;;;;;16.27;15.07;;;;;;;;;;1810122;77;617772;-75
2022/10/10 04:53:45;;;;;;;17.27;15.77;;;;;;;;;;1721859;81;615758;-75
2022/10/10 04:56:14;;;;;;;18.07;16.37;;;;;;;;;;1810201;77;617777;-75
2022/10/10 04:58:42;;;;;;;18.17;16.57;;;;;;;;;;1818284;78;616489;-75
2022/10/10 05:01:11;;;;;;;17.73;16.03;;;;;;;;;;1810150;78;617865;-75
2022/10/10 05:03:40;;;;;;;17.37;16.00;;;;;;;;;;1818133;78;616002;-75
2022/10/10 05:06:09;;;;;;;18.33;16.50;;;;;;;;;;1810035;77;617872;-74
2022/10/10 05:08:38;;;;;;;17.60;16.03;;;;;;;;;;1818276;77;617786;-75
2022/10/10 05:11:07;;;;;;;17.00;15.70;;;;;;;;;;1810069;77;617850;-75
2022/10/10 05:13:37;;;;;;;17.87;16.37;;;;;;;;;;1818270;78;617811;-75
2022/10/10 05:16:06;;;;;;;16.80;15.60;;;;;;;;;;1779602;78;617724;-76
2022/10/10 05:18:36;;;;;;;17.27;15.73;;;;;;;;;;1818374;77;617897;-74
2022/10/10 05:21:05;;;;;;;17.57;15.97;;;;;;;;;;1780761;78;617944;-75
2022/10/10 05:23:36;;;;;;;18.17;16.43;;;;;;;;;;1788537;78;617941;-75
2022/10/10 05:26:07;;;;;;;17.90;16.13;;;;;;;;;;1690452;80;617770;-74
2022/10/10 05:28:36;;;;;;;18.37;16.87;;;;;;;;;;1787936;78;616996;-75
2022/10/10 05:31:05;;;;;;;18.20;16.60;;;;;;;;;;1810372;78;617087;-74
2022/10/10 05:33:35;;;;;;;17.13;15.63;;;;;;;;;;1818262;78;617767;-74
2022/10/10 05:36:06;;;;;;;19.17;17.23;;;;;;;;;;1810300;78;617775;-75
2022/10/10 05:38:35;;;;;;;13.00;11.80;;;;;;;;;;1818224;78;617136;-75
2022/10/10 05:41:04;;;;;;;9.57;8.87;;;;;;;;;;1780644;78;617939;-75
2022/10/10 05:43:34;;;;;;;6.83;6.43;;;;;;;;;;1787845;78;612816;-75
2022/10/10 05:46:03;;;;;;;7.03;6.43;;;;;;;;;;1780012;78;613649;-74
2022/10/10 05:48:32;;;;;;;10.93;8.60;;;;;;;;;;1788304;78;613758;-74
2022/10/10 05:51:01;;;;;;;14.00;11.53;;;;;;;;;;1755697;78;615658;-75
2022/10/10 05:53:30;;;;;;;16.10;11.40;;;;;;;;;;1763981;78;617068;-74
2022/10/10 05:56:00;;;;;;;15.40;11.70;;;;;;;;;;1810254;77;617817;-74
2022/10/10 05:58:29;;;;;;;16.87;11.80;;;;;;;;;;1818134;78;617782;-75
2022/10/10 06:00:59;;;;;;;13.10;11.23;;;;;;;;;;1779883;78;617768;-75
2022/10/10 06:03:28;;;;;;;17.93;11.20;;;;;;;;;;1748438;78;616940;-75
2022/10/10 06:05:57;;;;;;;13.43;11.27;;;;;;;;;;1751232;79;617821;-75
2022/10/10 06:08:27;;;;;;;14.33;11.03;;;;;;;;;;1765353;80;617894;-75
2022/10/10 06:10:57;;;;;;;13.63;10.77;;;;;;;;;;1757061;80;617850;-76
2022/10/10 06:13:27;;;;;;;14.33;11.63;;;;;;;;;;1741737;80;617305;-75
2022/10/10 06:15:56;;;;;;;12.90;11.70;;;;;;;;;;1810402;77;617200;-75
2022/10/10 06:18:25;;;;;;;12.27;11.07;;;;;;;;;;1814504;78;617184;-75
2022/10/10 06:20:55;;;;;;;13.13;11.30;;;;;;;;;;1786377;77;617145;-76
2022/10/10 06:23:23;;;;;;;12.50;11.30;;;;;;;;;;1827833;76;617142;-75
2022/10/10 06:25:52;;;;;;;12.53;11.30;;;;;;;;;;1818329;77;615906;-75
2022/10/10 06:28:22;;;;;;;13.30;11.30;;;;;;;;;;1818083;78;617791;-75
2022/10/10 06:30:51;;;;;;;16.33;12.33;;;;;;;;;;1818143;77;615258;-75
2022/10/10 06:33:20;;;;;;;16.40;12.47;;;;;;;;;;1818259;77;616961;-75
2022/10/10 06:35:49;;;;;;;15.20;12.13;;;;;;;;;;1818103;77;615968;-75
2022/10/10 06:38:17;;;;;;;13.37;12.07;;;;;;;;;;1714690;81;617980;-75
2022/10/10 06:40:46;;;;;;;14.90;11.20;;;;;;;;;;1817935;78;615974;-75
2022/10/10 06:43:15;;;;;;;13.63;11.20;;;;;;;;;;1780433;78;616782;-76
2022/10/10 06:45:45;;;;;;;12.90;11.57;;;;;;;;;;1818102;76;616018;-75
2022/10/10 06:48:14;;;;;;;17.00;11.60;;;;;;;;;;1810401;77;616952;-75
2022/10/10 06:50:44;;;;;;;13.37;11.60;;;;;;;;;;1787290;78;616115;-75
2022/10/10 06:53:12;;;;;;;12.23;11.10;;;;;;;;;;1809908;77;616901;-75
2022/10/10 06:55:46;;;;;;;12.93;11.63;;;;;;;;;;1818303;78;615918;-75
2022/10/10 06:58:14;;;;;;;15.77;11.57;;;;;;;;;;1780003;78;617815;-75
2022/10/10 07:00:46;;;;;;;14.13;11.80;;;;;;;;;;1818238;77;615987;-75
2022/10/10 07:03:14;;;;;;;16.50;11.43;;;;;;;;;;1740081;76;617848;-75
2022/10/10 07:05:45;;;;;;;14.70;12.37;;;;;;;;;;1751472;81;615945;-75
2022/10/10 07:08:15;;;;;;;12.17;11.17;;;;;;;;;;1757177;80;618199;-76
2022/10/10 07:10:45;;;;;;;17.03;11.63;;;;;;;;;;1765135;79;615903;-75
2022/10/10 07:13:14;;;;;;;15.03;11.77;;;;;;;;;;1715431;80;617873;-75
2022/10/10 07:15:44;;;;;;;15.27;11.40;;;;;;;;;;1818371;76;615908;-75
2022/10/10 07:18:14;;;;;;;14.07;11.77;;;;;;;;;;1810224;77;617780;-75
2022/10/10 07:20:44;;;;;;;13.00;11.73;;;;;;;;;;1817792;78;615975;-75
2022/10/10 07:23:12;;;;;;;13.50;11.30;;;;;;;;;;1810173;77;616989;-75
2022/10/10 07:25:43;;;;;;;13.40;12.10;;;;;;;;;;1787724;78;615645;-75
2022/10/10 07:28:13;;;;;;;13.33;11.07;;;;;;;;;;1810322;77;617972;-75
2022/10/10 07:30:45;;;;;;;17.17;12.33;;;;;;;;;;1818248;77;616077;-75
2022/10/10 07:33:14;;;;;;;12.23;11.00;;;;;;;;;;1810425;77;617945;-75
2022/10/10 07:35:42;;;;;;;15.53;11.63;;;;;;;;;;1818292;78;615951;-75
2022/10/10 07:38:11;;;;;;;13.10;11.90;;;;;;;;;;1810504;77;617189;-75
2022/10/10 07:40:41;;;;;;;13.03;11.73;;;;;;;;;;1817619;78;616015;-75
2022/10/10 07:43:10;;;;;;;15.83;11.60;;;;;;;;;;1780270;78;616996;-75
2022/10/10 07:45:39;;;;;;;14.37;11.33;;;;;;;;;;1818358;77;617807;-74
2022/10/10 07:48:07;;;;;;;12.03;10.77;;;;;;;;;;1810362;78;617824;-74
2022/10/10 07:50:37;;;;;;;14.93;10.57;;;;;;;;;;1725081;80;617921;-75
2022/10/10 07:53:06;;;;;;;15.13;10.50;;;;;;;;;;1748497;80;617983;-75
2022/10/10 07:55:35;;;;;;;11.17;10.03;;;;;;;;;;1759686;79;617178;-80
2022/10/10 07:58:05;;;;;;;10.97;9.80;;;;;;;;;;1734174;80;617730;-80
2022/10/10 08:00:36;;;;;;;15.40;10.60;;;;;;;;;;1818248;78;615926;-83
2022/10/10 08:03:05;;;;;;;11.10;10.10;;;;;;;;;;1810421;77;617929;-81
2022/10/10 08:05:34;;;;;;;11.73;10.63;;;;;;;;;;1818694;78;617828;-81
2022/10/10 08:08:04;;;;;;;11.30;9.90;;;;;;;;;;1810574;77;617698;-81
2022/10/10 08:10:33;;;;;;;12.33;11.03;;;;;;;;;;1742053;80;614896;-81
2022/10/10 08:13:01;;;;;;;12.60;11.30;;;;;;;;;;1777246;77;617888;-80
2022/10/10 08:15:31;;;;;;;12.70;11.50;;;;;;;;;;1699114;80;617241;-81
2022/10/10 08:18:01;;;;;;;15.53;10.67;;;;;;;;;;1706434;80;617842;-81
2022/10/10 08:20:30;;;;;;;14.33;11.03;;;;;;;;;;1741661;80;617824;-82
2022/10/10 08:22:59;;;;;;;13.83;11.73;;;;;;;;;;1810255;77;617813;-80
2022/10/10 08:25:28;;;;;;;11.57;10.40;;;;;;;;;;1818238;77;617749;-81
2022/10/10 08:27:57;;;;;;;11.67;10.57;;;;;;;;;;1810386;78;616997;-81
2022/10/10 08:30:26;;;;;;;13.90;11.07;;;;;;;;;;1818260;77;617760;-81
2022/10/10 08:32:55;;;;;;;11.93;10.73;;;;;;;;;;1780605;78;617925;-80
2022/10/10 08:35:23;;;;;;;12.60;10.70;;;;;;;;;;1787828;78;617882;-81
2022/10/10 08:37:52;;;;;;;16.07;10.77;;;;;;;;;;1762437;78;615831;-81
2022/10/10 08:40:22;;;;;;;15.67;9.87;;;;;;;;;;1787532;78;617237;-81
2022/10/10 08:42:53;;;;;;;12.47;9.00;;;;;;;;;;1741751;80;613806;-81
2022/10/10 08:45:23;;;;;;;9.70;8.80;;;;;;;;;;1818335;76;614914;-81
2022/10/10 08:47:54;;;;;;;11.20;10.03;;;;;;;;;;1741743;80;611725;-82
2022/10/10 08:50:25;;;;;;;12.40;10.40;;;;;;;;;;1721403;81;617854;-81
2022/10/10 08:53:01;;;;;;;11.90;10.80;;;;;;;;;;1818302;77;615954;-81
2022/10/10 08:55:32;;;;;;;13.17;11.87;;;;;;;;;;1818504;78;617775;-82
2022/10/10 08:58:02;;;;;;;12.50;10.33;;;;;;;;;;1810297;77;616871;-76
2022/10/10 09:00:32;;;;;;;12.50;11.17;;;;;;;;;;1751189;80;617071;-76
2022/10/10 09:03:01;;;;;;;13.03;11.77;;;;;;;;;;1810203;77;617773;-76
2022/10/10 09:05:34;;;;;;;12.70;11.40;;;;;;;;;;1818110;77;617828;-75
2022/10/10 09:08:12;;;;;;;15.27;11.63;;;;;;;;;;1810098;77;617741;-76
2022/10/10 09:10:44;;;;;;;12.90;11.60;;;;;;;;;;1818064;78;615932;-76
2022/10/10 09:13:15;;;;;;;12.90;11.70;;;;;;;;;;1769756;76;617951;-76
2022/10/10 09:15:46;;;;;;;14.10;11.53;;;;;;;;;;1764771;80;615889;-76
2022/10/10 09:18:17;;;;;;;13.07;11.77;;;;;;;;;;1714375;80;617916;-76
2022/10/10 09:20:47;;;;;;;14.77;12.10;;;;;;;;;;1817488;78;615897;-76
2022/10/10 09:23:21;;;;;;;15.87;12.33;;;;;;;;;;1679724;80;617860;-76
2022/10/10 09:25:52;;;;;;;13.17;11.43;;;;;;;;;;1765061;80;615941;-76
2022/10/10 09:28:22;;;;;;;15.20;11.80;;;;;;;;;;1736377;80;617770;-76
2022/10/10 09:30:53;;;;;;;14.63;11.67;;;;;;;;;;1741622;80;615846;-75
2022/10/10 09:33:26;;;;;;;17.30;12.00;;;;;;;;;;1818259;78;617729;-85
2022/10/10 09:35:56;;;;;;;13.40;11.20;;;;;;;;;;1810051;77;617810;-78
2022/10/10 09:38:27;;;;;;;12.50;11.37;;;;;;;;;;1818306;77;617837;-75
2022/10/10 09:40:58;;;;;;;11.90;10.67;;;;;;;;;;1754917;78;617776;-74
2022/10/10 09:43:28;;;;;;;13.93;11.93;;;;;;;;;;1786768;78;618100;-76
2022/10/10 09:45:59;;;;;;;14.83;12.30;;;;;;;;;;1779401;77;617831;-76
2022/10/10 09:48:30;;;;;;;12.13;11.00;;;;;;;;;;1818201;78;617170;-76
2022/10/10 09:50:58;;;;;;;15.33;11.13;;;;;;;;;;1810134;78;616970;-76
2022/10/10 09:53:28;;;;;;;14.03;11.73;;;;;;;;;;1817855;78;617748;-76
2022/10/10 09:55:59;;;;;;;12.80;11.50;;;;;;;;;;1779656;77;617761;-76
2022/10/10 09:58:30;;;;;;;11.70;10.70;;;;;;;;;;1817992;78;617848;-77
2022/10/10 10:01:13;;;;;;;12.33;11.03;;;;;;;;;;1743537;78;617711;-77
2022/10/10 10:03:43;;;;;;;18.13;12.63;;;;;;;;;;1818274;78;615973;-76
2022/10/10 10:06:13;;;;;;;14.07;12.57;;;;;;;;;;1754099;78;616934;-76
2022/10/10 10:08:43;;;;;;;14.57;12.07;;;;;;;;;;1722187;81;616021;-76
2022/10/10 10:11:22;;;;;;;13.63;12.27;;;;;;;;;;1810505;78;616973;-76
2022/10/10 10:13:55;;;;;;;14.20;12.53;;;;;;;;;;1787740;78;615934;-76
2022/10/10 10:16:32;;;;;;;14.13;12.20;;;;;;;;;;1818079;78;617830;-75
2022/10/10 10:19:02;;;;;;;13.00;11.87;;;;;;;;;;1755781;78;617799;-76
2022/10/10 10:21:31;;;;;;;13.93;12.47;;;;;;;;;;1818168;77;617175;-76
2022/10/10 10:24:01;;;;;;;13.80;12.40;;;;;;;;;;1810242;78;617019;-76
2022/10/10 10:26:33;;;;;;;14.20;12.20;;;;;;;;;;1817762;77;617904;-76
2022/10/10 10:29:02;;;;;;;12.40;11.40;;;;;;;;;;1768149;76;617598;-75
2022/10/10 10:31:58;;;;;;;13.10;11.97;;;;;;;;;;1765313;79;617745;-76
2022/10/10 10:34:33;;;;;;;13.43;12.30;;;;;;;;;;1724241;80;617120;-76
2022/10/10 10:37:03;;;;;;;12.33;11.33;;;;;;;;;;1757421;79;617855;-76
2022/10/10 10:39:36;;;;;;;14.53;11.77;;;;;;;;;;1721852;81;617801;-76
2022/10/10 10:42:07;;;;;;;12.63;11.43;;;;;;;;;;1702155;80;617951;-76
2022/10/10 10:44:39;;;;;;;12.50;11.50;;;;;;;;;;1741368;80;617829;-76
2022/10/10 10:47:12;;;;;;;12.47;11.27;;;;;;;;;;1780152;78;616876;-76
2022/10/10 10:49:42;;;;;;;13.03;11.80;;;;;;;;;;1818008;78;615944;-76
2022/10/10 10:52:15;;;;;;;12.80;11.73;;;;;;;;;;1754477;78;617050;-76
2022/10/10 10:54:47;;;;;;;13.27;12.10;;;;;;;;;;1787736;78;615795;-76
2022/10/10 10:57:17;;;;;;;13.93;12.70;;;;;;;;;;1810526;77;616856;-76
2022/10/10 10:59:52;;;;;;;12.33;11.30;;;;;;;;;;1818056;77;615667;-76
2022/10/10 11:02:29;;;;;;;12.33;11.37;;;;;;;;;;1777316;76;617900;-76
2022/10/10 11:05:02;;;;;;;13.40;11.50;;;;;;;;;;1750809;80;617907;-76
2022/10/10 11:07:33;;;;;;;12.27;11.17;;;;;;;;;;1735829;80;617812;-76
2022/10/10 11:10:03;;;;;;;13.73;11.30;;;;;;;;;;1757766;80;617791;-76
2022/10/10 11:12:39;;;;;;;12.43;11.27;;;;;;;;;;1735924;80;617763;-75
2022/10/10 11:15:10;;;;;;;12.93;11.70;;;;;;;;;;1728840;79;617009;-75
2022/10/10 11:17:40;;;;;;;12.63;11.27;;;;;;;;;;1741562;80;617037;-76
2022/10/10 11:20:10;;;;;;;15.07;11.97;;;;;;;;;;1810021;78;617202;-75
2022/10/10 11:22:44;;;;;;;11.80;10.60;;;;;;;;;;1817566;77;617958;-76
2022/10/10 11:25:18;;;;;;;11.33;10.33;;;;;;;;;;1810050;77;617755;-75
2022/10/10 11:27:49;;;;;;;13.67;10.40;;;;;;;;;;1818052;77;616082;-76
2022/10/10 11:30:19;;;;;;;12.40;10.87;;;;;;;;;;1779480;78;616929;-76
2022/10/10 11:32:50;;;;;;;11.73;10.70;;;;;;;;;;1747691;78;616008;-75
2022/10/10 11:35:25;;;;;;;12.20;11.00;;;;;;;;;;1765097;80;617769;-75
2022/10/10 11:37:55;;;;;;;11.50;10.40;;;;;;;;;;1736243;80;615898;-76
2022/10/10 11:40:27;;;;;;;11.80;10.60;;;;;;;;;;1736243;80;617851;-76
2022/10/10 11:42:58;;;;;;;11.17;10.07;;;;;;;;;;1704276;80;617759;-76
2022/10/10 11:45:29;;;;;;;10.90;10.00;;;;;;;;;;1736511;80;617969;-76
2022/10/10 11:48:00;;;;;;;10.43;9.67;;;;;;;;;;1757567;79;617897;-75
2022/10/10 11:50:30;;;;;;;11.40;10.20;;;;;;;;;;1736643;80;615835;-76
2022/10/10 11:53:01;;;;;;;11.17;10.07;;;;;;;;;;1728438;79;617672;-76
2022/10/10 11:55:31;;;;;;;13.00;11.80;;;;;;;;;;1765265;79;617956;-75
2022/10/10 11:58:01;;;;;;;10.73;9.93;;;;;;;;;;1733226;80;617763;-76
2022/10/10 12:00:30;;;;;;;12.20;11.10;;;;;;;;;;1814974;77;614806;-75
2022/10/10 12:02:58;;;;;;;12.10;10.87;;;;;;;;;;1776738;78;617797;-76
2022/10/10 12:05:28;;;;;;;13.23;12.10;;;;;;;;;;1763307;78;617858;-75
2022/10/10 12:08:02;;;;;;;11.83;10.83;;;;;;;;;;1810153;77;617674;-76
2022/10/10 12:10:32;;;;;;;12.43;11.30;;;;;;;;;;1787705;78;617957;-75
2022/10/10 12:13:03;;;;;;;12.83;11.53;;;;;;;;;;1810178;77;617620;-75
2022/10/10 12:15:33;;;;;;;12.50;11.50;;;;;;;;;;1787687;78;617054;-75
2022/10/10 12:18:02;;;;;;;12.80;11.63;;;;;;;;;;1810187;77;616976;-76
2022/10/10 12:20:33;;;;;;;13.17;11.97;;;;;;;;;;1818056;77;617898;-76
2022/10/10 12:23:09;;;;;;;13.80;12.50;;;;;;;;;;1779359;77;616892;-76
2022/10/10 12:25:41;;;;;;;10.70;9.83;;;;;;;;;;1817858;77;616980;-76
2022/10/10 12:28:24;;;;;;;13.57;12.57;;;;;;;;;;1780945;78;615739;-76
2022/10/10 12:31:12;;;;;;;13.10;12.07;;;;;;;;;;1818141;78;615778;-75
2022/10/10 12:34:00;;;;;;;11.57;10.53;;;;;;;;;;1818139;77;616035;-76
2022/10/10 12:36:50;;;;;;;12.47;11.37;;;;;;;;;;1818143;77;618015;-75
2022/10/10 12:39:32;;;;;;;11.87;11.07;;;;;;;;;;1701850;81;618006;-76
2022/10/10 12:42:01;;;;;;;11.13;10.33;;;;;;;;;;1757740;79;617685;-76
2022/10/10 12:44:43;;;;;;;12.53;11.37;;;;;;;;;;1765249;78;618185;-76
2022/10/10 12:47:26;;;;;;;12.20;10.90;;;;;;;;;;1669825;84;617730;-75
2022/10/10 12:49:57;;;;;;;11.80;10.73;;;;;;;;;;1689739;84;617700;-76
2022/10/10 12:52:27;;;;;;;11.90;11.07;;;;;;;;;;1739834;80;617945;-76
2022/10/10 12:54:57;;;;;;;11.97;10.80;;;;;;;;;;1717912;81;617791;-76
2022/10/10 12:57:26;;;;;;;10.70;10.00;;;;;;;;;;1723483;81;617723;-76
2022/10/10 12:59:55;;;;;;;11.40;10.50;;;;;;;;;;1716931;81;616997;-76
2022/10/10 13:02:25;;;;;;;10.27;9.67;;;;;;;;;;1692255;84;617870;-76
2022/10/10 13:04:55;;;;;;;11.77;10.23;;;;;;;;;;1665513;85;613928;-76
2022/10/10 13:07:24;;;;;;;10.90;10.13;;;;;;;;;;1692781;82;617951;-75
2022/10/10 13:09:54;;;;;;;11.87;10.87;;;;;;;;;;1665126;85;615748;-75
2022/10/10 13:12:24;;;;;;;11.97;10.83;;;;;;;;;;1692466;84;617865;-75
2022/10/10 13:14:54;;;;;;;11.70;10.60;;;;;;;;;;1665309;82;616086;-76
2022/10/10 13:17:25;;;;;;;12.40;11.23;;;;;;;;;;1661932;82;617128;-76
2022/10/10 13:19:54;;;;;;;12.77;11.47;;;;;;;;;;1805923;77;616025;-77
2022/10/10 13:22:24;;;;;;;11.03;10.40;;;;;;;;;;1817838;78;617242;-77
2022/10/10 13:24:53;;;;;;;13.07;12.07;;;;;;;;;;1818008;78;615951;-76
2022/10/10 13:27:22;;;;;;;12.67;11.70;;;;;;;;;;1817747;78;616934;-76
2022/10/10 13:29:51;;;;;;;12.20;11.30;;;;;;;;;;1811330;78;615993;-76
2022/10/10 13:32:23;;;;;;;12.33;11.30;;;;;;;;;;1700297;80;617902;-75
2022/10/10 13:34:54;;;;;;;10.80;9.93;;;;;;;;;;1774190;79;615812;-76
2022/10/10 13:37:23;;;;;;;11.57;10.63;;;;;;;;;;1699399;81;614761;-74
2022/10/10 13:39:52;;;;;;;10.87;10.07;;;;;;;;;;1818151;78;615843;-75
2022/10/10 13:42:34;;;;;;;11.17;10.47;;;;;;;;;;1784844;78;617961;-76
2022/10/10 13:45:04;;;;;;;11.40;10.57;;;;;;;;;;1805929;77;617841;-76
2022/10/10 13:47:53;;;;;;;11.60;10.43;;;;;;;;;;1748715;78;617641;-76
2022/10/10 13:50:25;;;;;;;11.43;10.53;;;;;;;;;;1765146;80;617916;-76
2022/10/10 13:53:13;;;;;;;11.57;10.57;;;;;;;;;;1765366;80;616025;-76
2022/10/10 13:55:44;;;;;;;10.73;9.93;;;;;;;;;;1739685;80;616108;-76
2022/10/10 13:58:14;;;;;;;10.20;9.33;;;;;;;;;;1728129;80;614843;-76
2022/10/10 14:00:45;;;;;;;10.00;9.30;;;;;;;;;;1722157;81;613834;-76
2022/10/10 14:03:14;;;;;;;10.20;9.30;;;;;;;;;;1809085;78;615610;-76
2022/10/10 14:05:43;;;;;;;10.80;9.70;;;;;;;;;;1787860;78;613804;-76
2022/10/10 14:08:15;;;;;;;10.80;9.50;;;;;;;;;;1810549;78;615510;-76
2022/10/10 14:10:45;;;;;;;9.80;8.90;;;;;;;;;;1787091;78;613603;-76
2022/10/10 14:13:16;;;;;;;9.50;8.73;;;;;;;;;;1779079;78;612914;-76
2022/10/10 14:15:47;;;;;;;9.43;8.57;;;;;;;;;;1741641;78;611586;-76
2022/10/10 14:18:17;;;;;;;10.37;9.30;;;;;;;;;;1762711;78;613540;-75
2022/10/10 14:20:46;;;;;;;9.73;8.97;;;;;;;;;;1818198;78;613619;-75
2022/10/10 14:23:15;;;;;;;10.40;9.40;;;;;;;;;;1810517;77;612846;-75
2022/10/10 14:25:44;;;;;;;10.73;8.97;;;;;;;;;;1721853;81;613884;-75